Time;durP1;ratioP1;P1;durP2;ratioP2;P2;SDS_P1;SDS_P2;PMS_P1;PMS_P2;Temp;Humidity;BMP_temperature;BMP_pressure;BME280_temperature;BME280_humidity;BME280_pressure;Samples;Min_cycle;Max_cycle;Signal;HPM_P1;HPM_P2
2023/04/04 00:00:52;;;;;;;0.70;0.40;;;;;;;;;;20722191;28;20218;-68
2023/04/04 00:10:58;;;;;;;0.40;0.20;;;;;;;;;;20721330;28;20257;-69
2023/04/04 00:21:00;;;;;;;0.60;0.40;;;;;;;;;;20720985;28;20297;-68
2023/04/04 00:31:02;;;;;;;0.57;0.37;;;;;;;;;;20720483;28;20222;-68
2023/04/04 00:41:05;;;;;;;3.50;0.60;;;;;;;;;;20719934;28;20289;-68
2023/04/04 00:51:07;;;;;;;0.57;0.40;;;;;;;;;;20728473;28;20211;-68
2023/04/04 01:01:12;;;;;;;2.00;0.53;;;;;;;;;;20735545;28;20276;-68
2023/04/04 01:11:15;;;;;;;1.70;0.47;;;;;;;;;;20734070;28;20180;-68
2023/04/04 01:21:20;;;;;;;5.63;0.50;;;5.40;99.90;;;;;;20749850;28;20277;-68
2023/04/04 01:31:35;;;;;;;0.47;0.40;;;;;;;;;;20733196;28;20269;-69
2023/04/04 01:41:37;;;;;;;0.93;0.30;;;;;;;;;;20806261;23;20219;-68
2023/04/04 01:51:40;;;;;;;6.17;0.83;;;;;;;;;;20724352;28;20219;-68
2023/04/04 02:01:43;;;;;;;0.73;0.30;;;;;;;;;;20716248;28;20222;-68
2023/04/04 02:11:45;;;;;;;0.33;0.23;;;;;;;;;;20715278;28;20212;-68
2023/04/04 02:21:48;;;;;;;1.30;0.40;;;;;;;;;;20714464;28;20292;-69
2023/04/04 02:31:50;;;;;;;1.17;0.67;;;;;;;;;;20714289;28;20207;-69
2023/04/04 02:41:52;;;;;;;0.27;0.23;;;;;;;;;;20713016;28;20227;-69
2023/04/04 02:51:53;;;;;;;0.33;0.30;;;;;;;;;;20712413;28;20223;-69
2023/04/04 03:01:56;;;;;;;0.30;0.30;;;;;;;;;;20711522;28;20281;-69
2023/04/04 03:11:59;;;;;;;1.00;0.83;;;;;;;;;;20710128;28;20748;-69
2023/04/04 03:22:02;;;;;;;0.50;0.30;;;;;;;;;;20725463;28;20231;-69
2023/04/04 03:32:07;;;;;;;0.83;0.57;;;;;;;;;;20708176;28;20223;-69
2023/04/04 03:42:09;;;;;;;0.30;0.30;;;;;;;;;;20708552;28;20219;-69
2023/04/04 03:52:11;;;;;;;0.60;0.50;;;;;;;;;;20692476;28;20686;-69
2023/04/04 04:02:12;;;;;;;1.13;0.83;;;;;;;;;;20725017;28;20226;-69
2023/04/04 04:12:14;;;;;;;0.77;0.63;;;;;;;;;;20772399;28;20575;-68
2023/04/04 04:22:17;;;;;;;1.83;0.87;;;;;;;;;;20767789;28;20226;-69
2023/04/04 04:32:22;;;;;;;0.83;0.50;;;;;;;;;;20780802;28;20260;-69
2023/04/04 04:42:28;;;;;;;0.67;0.60;;;;;;;;;;20814017;28;20281;-69
2023/04/04 04:52:36;;;;;;;1.03;0.63;;;3.60;99.90;;;;;;20846125;28;20226;-69
2023/04/04 05:02:38;;;;;;;1.00;0.67;;;;;;;;;;20800715;28;20222;-70
2023/04/04 05:12:43;;;;;;;0.53;0.53;;;;;;;;;;20815185;28;20277;-69
2023/04/04 05:22:49;;;;;;;3.13;1.80;;;;;;;;;;20829017;28;20743;-70
2023/04/04 05:33:05;;;;;;;0.63;0.57;;;;;;;;;;20840935;28;20242;-70
2023/04/04 05:43:08;;;;;;;3.63;1.57;;;;;;;;;;20743578;28;20235;-70
2023/04/04 05:53:20;;;;;;;1.27;0.63;;;;;;;;;;20718914;28;20273;-70
2023/04/04 06:03:27;;;;;;;3.27;0.67;;;;;;;;;;20716393;28;20215;-70
2023/04/04 06:13:30;;;;;;;3.60;0.70;;;;;;;;;;20716332;28;20284;-71
2023/04/04 06:23:38;;;;;;;0.73;0.47;;;;;;;;;;20714646;28;20659;-69
2023/04/04 06:33:41;;;;;;;0.70;0.50;;;;;;;;;;20713631;28;20223;-69
2023/04/04 06:43:43;;;;;;;0.47;0.47;;;;;;;;;;20759274;28;20678;-70
2023/04/04 06:53:44;;;;;;;1.80;0.50;;;;;;;;;;20750148;28;20276;-69
2023/04/04 07:03:46;;;;;;;1.37;0.70;;;;;;;;;;20735700;28;20488;-68
2023/04/04 07:13:49;;;;;;;0.93;0.67;;;;;;;;;;20730477;28;20257;-68
2023/04/04 07:23:52;;;;;;;0.77;0.70;;;;;;;;;;20797749;28;20226;-68
2023/04/04 07:33:54;;;;;;;0.83;0.57;;;;;;;;;;20753512;28;20241;-68
2023/04/04 07:43:56;;;;;;;0.20;0.20;;;;;;;;;;20738117;23;20227;-68
2023/04/04 07:53:58;;;;;;;0.50;0.30;;;;;;;;;;20707965;28;20215;-68
2023/04/04 08:04:00;;;;;;;0.40;0.20;;;;;;;;;;20722292;28;20227;-68
2023/04/04 08:14:02;;;;;;;1.03;0.50;;;;;;;;;;20722236;28;20571;-68
2023/04/04 08:24:05;;;;;;;0.43;0.23;;;;;;;;;;20705788;28;20273;-68
2023/04/04 08:34:07;;;;;;;0.13;0.10;;;;;;;;;;20700384;28;20262;-68
2023/04/04 08:44:16;;;;;;;0.40;0.40;;;6.60;99.90;;;;;;20674110;28;20598;-68
2023/04/04 08:54:19;;;;;;;1.27;0.40;;;6.40;99.90;;;;;;20607903;28;20649;-68
2023/04/04 09:04:21;;;;;;;0.87;0.50;;;;;;;;;;20623391;28;20248;-68
2023/04/04 09:14:26;;;;;;;1.20;0.70;;;;;;;;;;20635712;28;20232;-68
2023/04/04 09:24:41;;;;;;;1.23;0.50;;;8.10;99.90;;;;;;20638719;28;20220;-69
2023/04/04 09:34:44;;;;;;;1.40;0.37;;;;;;;;;;20636815;28;20267;-68
2023/04/04 09:44:45;;;;;;;1.90;0.30;;;;;;;;;;20651891;28;20215;-68
2023/04/04 09:54:58;;;;;;;0.40;0.30;;;8.60;99.90;;;;;;20635472;28;20602;-69
2023/04/04 10:05:00;;;;;;;0.33;0.30;;;;;;;;;;20619161;28;20207;-69
2023/04/04 10:15:02;;;;;;;1.20;0.47;;;8.90;99.90;;;;;;20617950;28;20220;-69
2023/04/04 10:25:06;;;;;;;0.57;0.40;;;9.30;99.90;;;;;;20648922;28;20268;-69
2023/04/04 10:35:10;;;;;;;2.03;0.33;;;9.40;99.90;;;;;;20616275;28;20282;-69
2023/04/04 10:45:16;;;;;;;0.60;0.40;;;;;;;;;;20631824;28;20282;-69
2023/04/04 10:55:18;;;;;;;1.30;0.60;;;;;;;;;;20647220;28;20227;-68
2023/04/04 11:05:21;;;;;;;0.30;0.20;;;;;;;;;;20684022;28;20242;-69
2023/04/04 11:15:26;;;;;;;0.60;0.30;;;;;;;;;;20709771;28;20227;-70
2023/04/04 11:25:32;;;;;;;0.50;0.40;;;;;;;;;;20697187;28;20731;-71
2023/04/04 11:35:38;;;;;;;0.80;0.37;;;;;;;;;;20714419;28;20258;-70
2023/04/04 11:45:43;;;;;;;0.87;0.40;;;;;;;;;;20676674;28;20281;-68
2023/04/04 11:55:49;;;;;;;0.70;0.50;;;11.60;99.90;;;;;;20707967;28;20230;-69
2023/04/04 12:05:51;;;;;;;1.23;0.53;;;;;;;;;;20706891;28;20574;-68
2023/04/04 12:15:55;;;;;;;1.00;0.43;;;;;;;;;;20703463;28;20289;-68
2023/04/04 12:25:57;;;;;;;0.70;0.50;;;;;;;;;;20689952;28;20231;-68
2023/04/04 12:35:59;;;;;;;1.23;0.53;;;;;;;;;;20637950;28;20286;-68
2023/04/04 12:46:02;;;;;;;1.33;0.87;;;11.80;99.90;;;;;;20646220;28;20250;-69
2023/04/04 12:56:04;;;;;;;1.23;0.60;;;12.00;99.90;;;;;;20653365;28;20227;-68
2023/04/04 13:06:13;;;;;;;0.87;0.40;;;;;;;;;;20637259;28;20290;-68
2023/04/04 13:16:31;;;;;;;0.70;0.60;;;;;;;;;;20652564;28;20590;-69
2023/04/04 13:26:33;;;;;;;0.73;0.50;;;;;;;;;;20688460;28;20215;-69
2023/04/04 13:36:35;;;;;;;0.80;0.60;;;;;;;;;;20699547;28;20219;-69
2023/04/04 13:46:37;;;;;;;0.40;0.33;;;;;;;;;;20790101;22;20226;-72
2023/04/04 13:56:39;;;;;;;1.77;0.97;;;;;;;;;;20827806;28;20223;-71
2023/04/04 14:06:41;;;;;;;1.67;0.70;;;;;;;;;;20829690;28;20202;-72
2023/04/04 14:16:43;;;;;;;2.70;0.70;;;;;;;;;;20827940;28;20632;-71
2023/04/04 14:26:45;;;;;;;0.30;0.30;;;;;;;;;;20825119;28;20237;-71
2023/04/04 14:36:47;;;;;;;1.17;0.53;;;12.70;99.90;;;;;;20824340;28;20686;-72
2023/04/04 14:46:51;;;;;;;2.23;1.00;;;12.80;99.90;;;;;;20825342;28;20210;-72
2023/04/04 14:56:53;;;;;;;0.37;0.30;;;;;;;;;;20823031;28;20230;-72
2023/04/04 15:06:59;;;;;;;0.63;0.50;;;;;;;;;;20822664;28;20242;-73
2023/04/04 15:17:01;;;;;;;1.17;0.80;;;;;;;;;;20822380;28;20575;-73
2023/04/04 15:27:02;;;;;;;1.77;0.97;;;;;;;;;;20832667;28;20621;-73
2023/04/04 15:37:04;;;;;;;0.97;0.60;;;;;;;;;;20822255;28;20284;-73
2023/04/04 15:47:06;;;;;;;0.70;0.40;;;;;;;;;;20755171;28;20281;-73
2023/04/04 15:57:07;;;;;;;0.67;0.50;;;;;;;;;;20775551;28;20771;-73
2023/04/04 16:07:10;;;;;;;1.23;0.60;;;;;;;;;;20792590;28;20226;-72
2023/04/04 16:17:11;;;;;;;0.57;0.40;;;;;;;;;;20814615;28;20207;-73
2023/04/04 16:27:13;;;;;;;1.43;0.93;;;;;;;;;;20815500;28;20206;-73
2023/04/04 16:37:16;;;;;;;2.03;0.50;;;;;;;;;;20813214;28;20226;-72
2023/04/04 16:47:18;;;;;;;0.83;0.60;;;;;;;;;;20815400;28;20242;-72
2023/04/04 16:57:19;;;;;;;1.93;0.90;;;11.20;99.90;;;;;;20813830;28;20584;-72
2023/04/04 17:07:21;;;;;;;3.60;1.30;;;;;;;;;;20779635;28;20206;-71
2023/04/04 17:17:23;;;;;;;3.13;0.60;;;;;;;;;;20813056;28;20206;-72
2023/04/04 17:27:24;;;;;;;1.17;0.60;;;;;;;;;;20812065;28;20207;-72
2023/04/04 17:37:27;;;;;;;1.30;0.70;;;;;;;;;;20826144;28;20211;-71
2023/04/04 17:47:29;;;;;;;0.57;0.40;;;;;;;;;;20806818;28;20238;-72
2023/04/04 17:57:31;;;;;;;0.47;0.30;;;;;;;;;;20824410;28;20222;-71
2023/04/04 18:07:33;;;;;;;0.70;0.50;;;;;;;;;;20825056;28;20718;-72
2023/04/04 18:17:35;;;;;;;0.67;0.40;;;;;;;;;;20806909;28;20238;-71
2023/04/04 18:27:37;;;;;;;2.13;0.83;;;;;;;;;;20823504;28;20579;-71
2023/04/04 18:37:39;;;;;;;1.90;0.87;;;;;;;;;;20825075;28;20296;-71
2023/04/04 18:47:40;;;;;;;2.37;0.40;;;;;;;;;;20821619;28;20775;-72
2023/04/04 18:57:47;;;;;;;0.63;0.60;;;;;;;;;;20821298;28;20557;-71
2023/04/04 19:07:51;;;;;;;1.37;0.60;;;;;;;;;;20820455;28;20202;-72
2023/04/04 19:17:52;;;;;;;1.23;0.87;;;;;;;;;;20819282;28;20218;-72
2023/04/04 19:27:55;;;;;;;0.63;0.43;;;;;;;;;;20820347;28;20280;-72
2023/04/04 19:37:56;;;;;;;1.10;0.57;;;;;;;;;;20819509;28;20626;-72
2023/04/04 19:47:58;;;;;;;1.73;0.80;;;;;;;;;;20805114;23;20234;-80
2023/04/04 19:58:00;;;;;;;2.40;0.77;;;;;;;;;;20814409;28;20296;-81
2023/04/04 20:08:05;;;;;;;0.70;0.60;;;9.20;99.90;;;;;;20790328;28;20230;-82
2023/04/04 20:18:07;;;;;;;0.60;0.40;;;;;;;;;;20818485;28;20276;-82
2023/04/04 20:28:18;;;;;;;0.57;0.50;;;;;;;;;;20798680;28;20624;-82
2023/04/04 20:38:20;;;;;;;1.00;0.70;;;;;;;;;;20818744;28;20264;-82
2023/04/04 20:48:38;;;;;;;1.57;0.70;;;;;;;;;;20824868;28;20222;-82
2023/04/04 20:58:40;;;;;;;2.80;1.00;;;;;;;;;;20786612;28;20222;-82
2023/04/04 21:08:48;;;;;;;1.10;0.77;;;;;;;;;;20830408;28;20223;-81
2023/04/04 21:18:53;;;;;;;1.10;0.70;;;;;;;;;;20816145;28;20235;-83
2023/04/04 21:28:56;;;;;;;1.43;0.70;;;;;;;;;;20809180;28;20218;-82
2023/04/04 21:39:12;;;;;;;2.10;0.90;;;8.10;99.90;;;;;;20868679;28;20234;-82
2023/04/04 21:49:13;;;;;;;1.40;0.80;;;;;;;;;;20801693;28;20261;-82
2023/04/04 21:59:15;;;;;;;2.80;1.20;;;;;;;;;;20766462;28;20231;-82
2023/04/04 22:09:18;;;;;;;2.37;1.20;;;;;;;;;;20750310;28;20212;-82
2023/04/04 22:19:22;;;;;;;1.57;0.90;;;;;;;;;;20782426;28;20305;-84
2023/04/04 22:29:24;;;;;;;3.40;1.70;;;;;;;;;;20755472;28;20223;-83
2023/04/04 22:39:26;;;;;;;1.80;1.03;;;;;;;;;;20748496;28;20223;-83
2023/04/04 22:49:28;;;;;;;6.50;0.80;;;;;;;;;;20764974;28;20223;-83
2023/04/04 22:59:30;;;;;;;1.53;0.90;;;;;;;;;;20747390;28;20266;-83
2023/04/04 23:09:33;;;;;;;3.17;1.23;;;;;;;;;;20728041;28;20242;-82
2023/04/04 23:19:34;;;;;;;2.43;1.40;;;;;;;;;;20728538;28;20295;-82
2023/04/04 23:29:36;;;;;;;0.93;0.60;;;7.40;99.90;;;;;;20743626;28;20326;-82
2023/04/04 23:39:38;;;;;;;1.53;0.80;;;;;;;;;;20725334;28;20293;-82
2023/04/04 23:49:40;;;;;;;3.63;1.17;;;;;;;;;;20742520;28;20673;-82
2023/04/04 23:59:43;;;;;;;2.93;1.00;;;;;;;;;;20766334;28;20233;-83
